createdAt,value
2019-05-10T00:00:05.801Z,305.97
2019-05-10T00:01:05.755Z,306.22
2019-05-10T00:02:05.772Z,305.78
2019-05-10T00:03:05.768Z,305.50
2019-05-10T00:04:05.817Z,305.61
2019-05-10T00:05:05.753Z,305.41
2019-05-10T00:06:05.737Z,305.64
2019-05-10T00:07:07.349Z,305.45
2019-05-10T00:08:05.754Z,305.81
2019-05-10T00:09:05.705Z,306.54
2019-05-10T00:10:05.681Z,307.61
2019-05-10T00:11:05.831Z,306.65
2019-05-10T00:12:05.657Z,306.36
2019-05-10T00:13:05.655Z,305.81
2019-05-10T00:14:05.654Z,305.41
2019-05-10T00:15:05.616Z,307.19
2019-05-10T00:16:06.509Z,305.93
2019-05-10T00:17:05.637Z,306.84
2019-05-10T00:18:05.593Z,305.99
2019-05-10T00:19:05.581Z,306.52
2019-05-10T00:20:05.575Z,306.33
2019-05-10T00:21:05.546Z,306.40
2019-05-10T00:22:05.606Z,306.40
2019-05-10T00:23:05.556Z,306.49
2019-05-10T00:24:05.515Z,306.16
2019-05-10T00:25:06.416Z,306.03
2019-05-10T00:26:05.491Z,306.07
2019-05-10T00:27:05.499Z,306.72
2019-05-10T00:28:05.529Z,306.44
2019-05-10T00:29:05.514Z,306.91
2019-05-10T00:30:05.464Z,305.16
2019-05-10T00:31:05.491Z,305.55
2019-05-10T00:32:05.436Z,305.96
2019-05-10T00:33:05.458Z,307.65
2019-05-10T00:34:05.447Z,305.52
2019-05-10T00:35:05.422Z,306.42
2019-05-10T00:36:05.407Z,306.08
2019-05-10T00:37:05.428Z,306.71
2019-05-10T00:38:05.413Z,307.05
2019-05-10T00:39:05.408Z,306.12
2019-05-10T00:40:05.392Z,306.07
2019-05-10T00:41:05.350Z,307.26
2019-05-10T00:42:05.354Z,306.65
2019-05-10T00:43:05.341Z,306.58
2019-05-10T00:44:05.362Z,306.75
2019-05-10T00:45:05.346Z,306.25
2019-05-10T00:46:05.319Z,307.27
2019-05-10T00:47:05.371Z,307.28
2019-05-10T00:48:05.267Z,307.72
2019-05-10T00:49:05.296Z,307.67
2019-05-10T00:50:05.280Z,307.57
2019-05-10T00:51:05.238Z,307.15
2019-05-10T00:52:05.230Z,306.59
2019-05-10T00:53:05.295Z,306.89
2019-05-10T00:54:05.253Z,308.20
2019-05-10T00:55:17.728Z,306.48
2019-05-10T00:56:06.177Z,306.68
2019-05-10T00:57:05.160Z,306.89
2019-05-10T00:58:05.176Z,307.30
2019-05-10T00:59:05.176Z,308.31
2019-05-10T01:00:05.136Z,308.14
2019-05-10T01:01:05.147Z,308.20
2019-05-10T01:02:14.556Z,308.57
2019-05-10T01:03:14.483Z,307.90
2019-05-10T01:04:14.998Z,307.99
2019-05-10T01:05:13.496Z,307.99
2019-05-10T01:06:14.555Z,308.12
2019-05-10T01:08:21.957Z,306.33
2019-05-10T01:09:29.599Z,307.23
2019-05-10T01:10:30.346Z,307.58
2019-05-10T01:11:31.392Z,308.15
2019-05-10T01:12:31.892Z,307.79
2019-05-10T01:13:31.427Z,307.27
2019-05-10T01:14:21.886Z,307.21
2019-05-10T01:15:21.906Z,307.03
2019-05-10T01:16:21.879Z,307.31
2019-05-10T01:17:21.856Z,306.95
2019-05-10T01:18:21.923Z,307.08
2019-05-10T01:19:21.822Z,307.79
2019-05-10T01:20:31.434Z,307.66
2019-05-10T01:21:21.804Z,307.53
2019-05-10T01:22:21.786Z,306.97
2019-05-10T01:23:21.800Z,306.85
2019-05-10T01:24:21.786Z,307.08
2019-05-10T01:25:34.065Z,306.99
2019-05-10T01:26:22.755Z,307.45
2019-05-10T01:27:21.785Z,307.40
2019-05-10T01:28:21.751Z,307.41
2019-05-10T01:29:21.724Z,308.39
2019-05-10T01:30:21.722Z,307.78
2019-05-10T01:31:21.731Z,307.25
2019-05-10T01:32:21.741Z,307.12
2019-05-10T01:33:21.676Z,306.95
2019-05-10T01:34:21.661Z,308.30
2019-05-10T01:35:21.694Z,307.40
2019-05-10T01:36:21.677Z,308.41
2019-05-10T01:37:21.650Z,307.61
2019-05-10T01:38:21.644Z,307.11
2019-05-10T01:39:21.624Z,307.29
2019-05-10T01:40:21.597Z,307.20
2019-05-10T01:41:21.605Z,307.02
2019-05-10T01:42:21.600Z,307.73
2019-05-10T01:43:21.576Z,307.13
2019-05-10T01:44:21.570Z,308.13
2019-05-10T01:45:21.543Z,308.18
2019-05-10T01:46:21.574Z,307.90
2019-05-10T01:47:21.557Z,307.82
2019-05-10T01:48:21.546Z,307.09
2019-05-10T01:49:21.511Z,307.45
2019-05-10T01:50:21.505Z,308.02
2019-05-10T01:51:21.489Z,308.33
2019-05-10T01:52:21.485Z,307.10
2019-05-10T01:53:21.522Z,307.01
2019-05-10T01:54:21.456Z,307.92
2019-05-10T01:55:21.478Z,307.78
2019-05-10T01:56:21.460Z,307.74
2019-05-10T01:57:21.488Z,307.40
2019-05-10T01:58:21.463Z,307.59
2019-05-10T01:59:21.435Z,307.61
2019-05-10T02:00:21.410Z,307.68
2019-05-10T02:01:21.402Z,308.34
2019-05-10T02:02:21.399Z,307.60
2019-05-10T02:03:21.380Z,307.11
2019-05-10T02:04:21.350Z,307.07
2019-05-10T02:05:21.346Z,307.60
2019-05-10T02:06:21.334Z,307.30
2019-05-10T02:07:22.637Z,307.59
2019-05-10T02:08:24.555Z,307.52
2019-05-10T02:09:22.412Z,307.83
2019-05-10T02:10:22.875Z,307.15
2019-05-10T02:11:21.304Z,306.90
2019-05-10T02:12:21.564Z,307.83
2019-05-10T02:13:21.471Z,307.66
2019-05-10T02:14:22.720Z,308.19
2019-05-10T02:15:21.342Z,307.83
2019-05-10T02:16:22.925Z,307.22
2019-05-10T02:17:22.377Z,306.80
2019-05-10T02:18:22.043Z,307.27
2019-05-10T02:19:21.888Z,307.66
2019-05-10T02:20:22.275Z,308.11
2019-05-10T02:21:23.009Z,308.00
2019-05-10T02:22:22.177Z,307.50
2019-05-10T02:23:23.583Z,307.45
2019-05-10T02:24:22.009Z,307.60
2019-05-10T02:25:22.381Z,307.78
2019-05-10T02:26:21.262Z,308.45
2019-05-10T02:27:21.882Z,308.13
2019-05-10T02:28:22.043Z,308.58
2019-05-10T02:29:22.411Z,308.33
2019-05-10T02:30:21.886Z,308.94
2019-05-10T02:31:21.896Z,308.44
2019-05-10T02:32:22.465Z,308.83
2019-05-10T02:33:21.971Z,308.65
2019-05-10T02:34:21.362Z,308.89
2019-05-10T02:35:21.160Z,308.58
2019-05-10T02:36:22.211Z,309.27
2019-05-10T02:37:22.676Z,307.75
2019-05-10T02:38:21.900Z,308.26
2019-05-10T02:39:22.888Z,308.06
2019-05-10T02:40:22.224Z,307.90
2019-05-10T02:41:21.896Z,307.53
2019-05-10T02:42:21.892Z,307.92
2019-05-10T02:43:21.098Z,307.85
2019-05-10T02:44:21.886Z,308.10
2019-05-10T02:45:21.027Z,308.30
2019-05-10T02:46:21.456Z,308.00
2019-05-10T02:47:21.018Z,305.48
2019-05-10T02:48:20.918Z,306.17
2019-05-10T02:49:20.914Z,307.89
2019-05-10T02:50:20.892Z,306.43
2019-05-10T02:51:20.854Z,307.17
2019-05-10T02:52:20.845Z,307.91
2019-05-10T02:53:20.861Z,306.51
2019-05-10T02:54:20.822Z,307.14
2019-05-10T02:55:20.893Z,307.77
2019-05-10T02:56:30.286Z,307.70
2019-05-10T02:57:21.812Z,306.12
2019-05-10T02:58:20.820Z,306.60
2019-05-10T02:59:20.791Z,306.52
2019-05-10T03:00:20.755Z,306.27
2019-05-10T03:01:20.748Z,306.98
2019-05-10T03:02:20.804Z,306.67
2019-05-10T03:03:20.729Z,306.97
2019-05-10T03:04:20.748Z,306.74
2019-05-10T03:05:20.725Z,306.55
2019-05-10T03:06:20.712Z,306.85
2019-05-10T03:07:20.814Z,306.31
2019-05-10T03:08:20.680Z,306.18
2019-05-10T03:09:20.680Z,307.02
2019-05-10T03:10:20.689Z,306.07
2019-05-10T03:11:20.682Z,306.27
2019-05-10T03:12:20.659Z,306.03
2019-05-10T03:13:20.619Z,306.17
2019-05-10T03:14:20.640Z,306.56
2019-05-10T03:15:20.625Z,306.29
2019-05-10T03:16:20.686Z,306.53
2019-05-10T03:17:20.602Z,306.59
2019-05-10T03:18:20.561Z,306.35
2019-05-10T03:19:20.560Z,304.95
2019-05-10T03:20:20.590Z,306.44
2019-05-10T03:21:20.562Z,305.48
2019-05-10T03:22:20.533Z,306.10
2019-05-10T03:23:20.545Z,305.79
2019-05-10T03:24:20.529Z,306.34
2019-05-10T03:25:20.499Z,306.03
2019-05-10T03:26:20.532Z,306.17
2019-05-10T03:27:20.483Z,306.26
2019-05-10T03:28:20.593Z,305.77
2019-05-10T03:29:20.477Z,306.25
2019-05-10T03:30:20.464Z,306.20
2019-05-10T03:31:20.450Z,306.01
2019-05-10T03:32:20.446Z,305.89
2019-05-10T03:33:20.451Z,305.96
2019-05-10T03:34:20.419Z,306.19
2019-05-10T03:35:20.396Z,306.52
2019-05-10T03:36:20.365Z,306.26
2019-05-10T03:37:20.421Z,305.64
2019-05-10T03:38:20.356Z,306.10
2019-05-10T03:39:20.392Z,306.20
2019-05-10T03:40:20.330Z,305.92
2019-05-10T03:41:20.325Z,306.54
2019-05-10T03:42:20.372Z,306.80
2019-05-10T03:43:20.350Z,305.72
2019-05-10T03:44:20.298Z,305.87
2019-05-10T03:45:20.279Z,305.96
2019-05-10T03:46:20.477Z,306.29
2019-05-10T03:47:20.334Z,306.40
2019-05-10T03:48:20.268Z,305.90
2019-05-10T03:49:20.313Z,306.61
2019-05-10T03:50:20.225Z,306.56
2019-05-10T03:51:20.212Z,305.85
2019-05-10T03:52:20.212Z,305.99
2019-05-10T03:53:20.260Z,306.89
2019-05-10T03:54:20.228Z,305.96
2019-05-10T03:55:20.196Z,306.68
2019-05-10T03:56:20.179Z,307.00
2019-05-10T03:57:20.149Z,306.78
2019-05-10T03:58:20.157Z,305.96
2019-05-10T03:59:20.144Z,306.41
2019-05-10T04:00:20.131Z,308.52
2019-05-10T04:01:20.118Z,307.40
2019-05-10T04:02:20.103Z,307.09
2019-05-10T04:03:20.093Z,308.48
2019-05-10T04:04:20.325Z,306.90
2019-05-10T04:05:20.094Z,306.06
2019-05-10T04:06:20.065Z,305.74
2019-05-10T04:07:20.045Z,305.21
2019-05-10T04:08:20.030Z,306.07
2019-05-10T04:09:20.059Z,306.15
2019-05-10T04:10:21.093Z,306.00
2019-05-10T04:11:20.044Z,306.17
2019-05-10T04:12:20.247Z,306.67
2019-05-10T04:13:23.189Z,306.68
2019-05-10T04:14:20.342Z,307.37
2019-05-10T04:15:23.784Z,306.92
2019-05-10T04:16:20.107Z,307.51
2019-05-10T04:17:20.919Z,307.40
2019-05-10T04:18:19.964Z,306.02
2019-05-10T04:19:22.115Z,307.38
2019-05-10T04:20:20.769Z,306.75
2019-05-10T04:21:20.005Z,306.50
2019-05-10T04:22:22.083Z,305.66
2019-05-10T04:23:20.327Z,306.72
2019-05-10T04:24:19.885Z,306.98
2019-05-10T04:25:19.866Z,306.49
2019-05-10T04:26:19.863Z,306.66
2019-05-10T04:27:31.497Z,306.40
2019-05-10T04:28:22.464Z,306.94
2019-05-10T04:29:19.889Z,306.72
2019-05-10T04:30:19.812Z,306.39
2019-05-10T04:31:19.948Z,306.38
2019-05-10T04:32:20.409Z,306.29
2019-05-10T04:33:19.812Z,306.25
2019-05-10T04:34:19.767Z,306.39
2019-05-10T04:35:20.072Z,306.96
2019-05-10T04:36:19.969Z,306.38
2019-05-10T04:37:19.737Z,307.21
2019-05-10T04:38:19.900Z,307.73
2019-05-10T04:39:19.761Z,308.79
2019-05-10T04:40:20.341Z,306.90
2019-05-10T04:41:19.863Z,306.97
2019-05-10T04:42:20.117Z,307.40
2019-05-10T04:43:20.867Z,307.03
2019-05-10T04:44:20.421Z,307.47
2019-05-10T04:45:21.930Z,307.02
2019-05-10T04:46:19.668Z,308.49
2019-05-10T04:47:23.905Z,306.29
2019-05-10T04:48:19.679Z,306.95
2019-05-10T04:49:19.623Z,307.21
2019-05-10T04:50:19.590Z,308.65
2019-05-10T04:51:19.596Z,306.96
2019-05-10T04:52:19.671Z,307.14
2019-05-10T04:53:19.568Z,307.32
2019-05-10T04:54:19.682Z,307.14
2019-05-10T04:55:19.581Z,306.78
2019-05-10T04:56:19.578Z,307.34
2019-05-10T04:57:21.727Z,307.18
2019-05-10T04:58:19.516Z,307.58
2019-05-10T04:59:21.307Z,307.84
2019-05-10T05:00:19.485Z,308.10
2019-05-10T05:01:20.418Z,307.85
2019-05-10T05:02:22.075Z,307.89
2019-05-10T05:03:20.532Z,308.24
2019-05-10T05:04:24.339Z,308.98
2019-05-10T05:05:29.858Z,307.00
2019-05-10T05:06:19.409Z,308.34
2019-05-10T05:07:19.393Z,307.97
2019-05-10T05:08:20.651Z,308.35
2019-05-10T05:09:24.457Z,308.36
2019-05-10T05:10:25.647Z,307.14
2019-05-10T05:11:19.958Z,308.35
2019-05-10T05:12:29.111Z,307.31
2019-05-10T05:13:21.066Z,308.40
2019-05-10T05:14:22.131Z,308.20
2019-05-10T05:15:19.414Z,308.20
2019-05-10T05:16:21.171Z,309.08
2019-05-10T05:17:22.058Z,309.23
2019-05-10T05:18:22.605Z,308.15
2019-05-10T05:19:19.287Z,308.77
2019-05-10T05:20:19.278Z,308.85
2019-05-10T05:21:19.278Z,308.31
2019-05-10T05:22:19.252Z,307.59
2019-05-10T05:23:19.224Z,307.81
2019-05-10T05:24:22.900Z,308.17
2019-05-10T05:25:21.995Z,307.17
2019-05-10T05:26:21.065Z,308.52
2019-05-10T05:27:20.994Z,308.22
2019-05-10T05:28:23.286Z,308.44
2019-05-10T05:29:22.007Z,308.77
2019-05-10T05:30:20.640Z,307.31
2019-05-10T05:31:34.228Z,306.24
2019-05-10T05:32:20.058Z,307.70
2019-05-10T05:33:20.090Z,307.08
2019-05-10T05:34:19.677Z,307.11
2019-05-10T05:35:19.168Z,307.04
2019-05-10T05:36:19.240Z,306.77
2019-05-10T05:37:19.124Z,306.26
2019-05-10T05:38:19.307Z,307.56
2019-05-10T05:39:19.212Z,307.45
2019-05-10T05:40:19.106Z,308.51
2019-05-10T05:41:19.075Z,307.05
2019-05-10T05:42:22.381Z,306.50
2019-05-10T05:43:21.773Z,306.57
2019-05-10T05:44:20.263Z,306.44
2019-05-10T05:45:20.187Z,306.72
2019-05-10T05:46:19.082Z,305.42
2019-05-10T05:47:19.686Z,305.46
2019-05-10T05:48:21.529Z,306.09
2019-05-10T05:49:18.971Z,306.22
2019-05-10T05:50:18.994Z,305.51
2019-05-10T05:51:19.093Z,305.37
2019-05-10T05:52:18.969Z,305.72
2019-05-10T05:53:22.425Z,305.96
2019-05-10T05:54:20.615Z,306.60
2019-05-10T05:55:22.766Z,305.35
2019-05-10T05:56:19.107Z,305.00
2019-05-10T05:57:22.243Z,306.12
2019-05-10T05:58:26.505Z,305.56
2019-05-10T05:59:23.799Z,306.34
2019-05-10T06:00:19.951Z,305.50
2019-05-10T06:01:26.124Z,305.82
2019-05-10T06:02:20.506Z,305.78
2019-05-10T06:03:27.767Z,305.95
2019-05-10T06:04:19.796Z,304.62
2019-05-10T06:05:32.708Z,305.99
2019-05-10T06:06:22.196Z,305.98
2019-05-10T06:07:18.756Z,305.35
2019-05-10T06:08:22.897Z,305.73
2019-05-10T06:09:19.750Z,304.66
2019-05-10T06:10:19.866Z,304.98
2019-05-10T06:11:19.499Z,304.22
2019-05-10T06:12:18.728Z,303.66
2019-05-10T06:13:23.515Z,305.15
2019-05-10T06:14:19.849Z,304.82
2019-05-10T06:15:23.078Z,304.96
2019-05-10T06:16:22.190Z,305.52
2019-05-10T06:17:23.831Z,304.64
2019-05-10T06:18:19.717Z,304.99
2019-05-10T06:19:19.944Z,304.35
2019-05-10T06:20:19.715Z,304.52
2019-05-10T06:21:25.110Z,305.24
2019-05-10T06:22:19.638Z,304.33
2019-05-10T06:23:18.640Z,303.96
2019-05-10T06:24:18.649Z,305.49
2019-05-10T06:25:18.733Z,305.56
2019-05-10T06:26:26.503Z,304.37
2019-05-10T06:27:19.638Z,304.00
2019-05-10T06:28:26.899Z,305.06
2019-05-10T06:29:19.860Z,304.87
2019-05-10T06:30:18.560Z,305.03
2019-05-10T06:31:18.554Z,304.62
2019-05-10T06:32:18.615Z,303.48
2019-05-10T06:33:21.132Z,304.07
2019-05-10T06:34:18.533Z,304.22
2019-05-10T06:35:19.548Z,304.27
2019-05-10T06:36:18.563Z,304.63
2019-05-10T06:37:18.562Z,305.31
2019-05-10T06:38:18.490Z,305.53
2019-05-10T06:39:18.541Z,305.73
2019-05-10T06:40:25.659Z,305.25
2019-05-10T06:41:19.422Z,305.12
2019-05-10T06:42:18.655Z,303.95
2019-05-10T06:43:18.448Z,304.39
2019-05-10T06:44:18.458Z,304.08
2019-05-10T06:45:18.372Z,304.76
2019-05-10T06:46:18.483Z,304.58
2019-05-10T06:47:21.681Z,304.91
2019-05-10T06:48:25.763Z,304.14
2019-05-10T06:49:19.349Z,304.33
2019-05-10T06:50:28.997Z,304.82
2019-05-10T06:51:19.379Z,304.23
2019-05-10T06:52:22.023Z,305.15
2019-05-10T06:53:22.993Z,305.09
2019-05-10T06:54:19.022Z,305.29
2019-05-10T06:55:18.275Z,306.26
2019-05-10T06:56:18.288Z,305.69
2019-05-10T06:57:19.388Z,304.89
2019-05-10T06:58:19.013Z,304.59
2019-05-10T06:59:19.455Z,304.56
2019-05-10T07:00:20.207Z,303.71
2019-05-10T07:01:18.228Z,304.10
2019-05-10T07:02:19.938Z,304.47
2019-05-10T07:03:19.256Z,304.59
2019-05-10T07:04:19.098Z,304.51
2019-05-10T07:05:18.258Z,304.31
2019-05-10T07:06:20.063Z,304.61
2019-05-10T07:07:33.112Z,304.87
2019-05-10T07:08:20.584Z,303.42
2019-05-10T07:09:19.015Z,304.17
2019-05-10T07:10:19.380Z,304.32
2019-05-10T07:11:19.136Z,304.45
2019-05-10T07:12:18.554Z,303.75
2019-05-10T07:13:18.210Z,303.92
2019-05-10T07:14:18.516Z,304.05
2019-05-10T07:15:18.092Z,303.87
2019-05-10T07:16:24.096Z,303.87
2019-05-10T07:17:20.016Z,304.31
2019-05-10T07:18:22.533Z,305.21
2019-05-10T07:19:19.082Z,304.90
2019-05-10T07:20:18.059Z,305.54
2019-05-10T07:21:17.977Z,304.12
2019-05-10T07:22:21.673Z,304.57
2019-05-10T07:23:19.034Z,304.60
2019-05-10T07:24:24.347Z,304.25
2019-05-10T07:25:18.974Z,303.84
2019-05-10T07:26:24.599Z,304.25
2019-05-10T07:27:18.952Z,303.92
2019-05-10T07:28:17.980Z,304.13
2019-05-10T07:29:29.723Z,303.14
2019-05-10T07:30:18.896Z,303.01
2019-05-10T07:31:17.906Z,303.61
2019-05-10T07:32:22.118Z,303.58
2019-05-10T07:33:21.025Z,304.22
2019-05-10T07:34:17.884Z,303.90
2019-05-10T07:35:17.894Z,305.05
2019-05-10T07:36:20.920Z,304.95
2019-05-10T07:37:18.831Z,304.70
2019-05-10T07:38:23.520Z,305.34
2019-05-10T07:39:18.843Z,304.19
2019-05-10T07:40:18.525Z,305.34
2019-05-10T07:41:19.648Z,306.52
2019-05-10T07:42:18.911Z,304.36
2019-05-10T07:43:24.877Z,305.31
2019-05-10T07:44:19.688Z,304.38
2019-05-10T07:45:18.763Z,304.93
2019-05-10T07:46:18.729Z,304.84
2019-05-10T07:47:18.575Z,305.56
2019-05-10T07:48:17.943Z,303.77
2019-05-10T07:49:17.730Z,304.37
2019-05-10T07:50:17.846Z,304.59
2019-05-10T07:51:22.681Z,305.73
2019-05-10T07:52:18.676Z,303.84
2019-05-10T07:53:22.908Z,305.05
2019-05-10T07:54:18.672Z,305.85
2019-05-10T07:55:25.346Z,305.12
2019-05-10T07:56:19.579Z,304.40
2019-05-10T07:57:18.591Z,304.67
2019-05-10T07:58:18.589Z,304.65
2019-05-10T07:59:21.962Z,304.21
2019-05-10T08:00:18.567Z,303.87
2019-05-10T08:01:29.083Z,303.67
2019-05-10T08:02:18.557Z,305.30
2019-05-10T08:03:23.359Z,304.70
2019-05-10T08:04:27.574Z,304.53
2019-05-10T08:05:18.620Z,304.81
2019-05-10T08:06:19.350Z,305.69
2019-05-10T08:07:18.552Z,305.40
2019-05-10T08:08:19.217Z,305.85
2019-05-10T08:09:19.279Z,305.47
2019-05-10T08:10:19.066Z,305.72
2019-05-10T08:12:40.135Z,303.09
2019-05-10T08:13:45.635Z,304.27
2019-05-10T08:15:52.270Z,301.40
2019-05-10T08:17:05.789Z,304.52
2019-05-10T08:17:52.223Z,305.34
2019-05-10T08:18:55.574Z,304.22
2019-05-10T08:19:55.058Z,305.59
2019-05-10T08:20:57.742Z,303.74
2019-05-10T08:21:57.403Z,305.24
2019-05-10T08:22:53.220Z,304.56
2019-05-10T08:23:53.997Z,304.76
2019-05-10T08:24:55.896Z,304.74
2019-05-10T08:27:14.006Z,301.78
2019-05-10T08:28:09.725Z,304.55
2019-05-10T08:29:15.129Z,303.69
2019-05-10T08:30:22.756Z,303.44
2019-05-10T08:31:12.183Z,303.90
2019-05-10T08:32:08.648Z,302.87
2019-05-10T08:33:10.851Z,302.73
2019-05-10T08:34:08.681Z,303.59
2019-05-10T08:35:16.207Z,302.79
2019-05-10T08:36:11.968Z,302.49
2019-05-10T08:37:08.610Z,302.62
2019-05-10T08:38:08.697Z,303.34
2019-05-10T08:39:11.025Z,304.08
2019-05-10T08:40:09.480Z,303.13
2019-05-10T08:41:13.469Z,302.41
2019-05-10T08:42:29.391Z,302.54
2019-05-10T08:43:13.041Z,301.63
2019-05-10T08:44:16.638Z,302.54
2019-05-10T08:45:09.530Z,301.35
2019-05-10T08:46:08.617Z,301.95
2019-05-10T08:47:12.592Z,301.24
2019-05-10T08:48:09.525Z,302.26
2019-05-10T08:49:09.483Z,302.01
2019-05-10T08:50:21.552Z,301.93
2019-05-10T08:51:09.493Z,302.60
2019-05-10T08:52:08.549Z,301.71
2019-05-10T08:53:10.698Z,301.44
2019-05-10T08:54:08.469Z,301.71
2019-05-10T08:55:08.516Z,302.23
2019-05-10T08:56:16.063Z,301.05
2019-05-10T08:57:12.671Z,300.79
2019-05-10T08:58:09.384Z,300.65
2019-05-10T08:59:14.567Z,301.21
2019-05-10T09:00:09.487Z,301.38
2019-05-10T09:01:20.550Z,300.92
2019-05-10T09:02:09.395Z,301.36
2019-05-10T09:03:09.761Z,301.88
2019-05-10T09:04:10.874Z,301.72
2019-05-10T09:05:08.317Z,301.30
2019-05-10T09:06:11.862Z,300.90
2019-05-10T09:07:11.766Z,300.80
2019-05-10T09:08:13.555Z,301.12
2019-05-10T09:09:09.337Z,300.88
2019-05-10T09:10:09.692Z,301.58
2019-05-10T09:11:08.313Z,301.98
2019-05-10T09:12:09.332Z,302.17
2019-05-10T09:13:08.255Z,302.85
2019-05-10T09:14:12.380Z,302.65
2019-05-10T09:15:10.308Z,302.12
2019-05-10T09:16:08.262Z,301.29
2019-05-10T09:17:08.259Z,302.02
2019-05-10T09:18:08.351Z,301.90
2019-05-10T09:19:08.188Z,302.26
2019-05-10T09:20:11.984Z,301.68
2019-05-10T09:21:10.814Z,302.12
2019-05-10T09:22:08.999Z,302.98
2019-05-10T09:23:08.589Z,301.82
2019-05-10T09:24:09.275Z,302.57
2019-05-10T09:25:08.097Z,302.11
2019-05-10T09:26:11.725Z,303.79
2019-05-10T09:27:09.133Z,302.89
2019-05-10T09:28:11.511Z,303.18
2019-05-10T09:29:09.062Z,304.24
2019-05-10T09:30:13.055Z,303.08
2019-05-10T09:31:18.648Z,302.29
2019-05-10T09:32:09.265Z,301.48
2019-05-10T09:33:09.005Z,301.77
2019-05-10T09:34:08.119Z,301.11
2019-05-10T09:35:09.218Z,302.02
2019-05-10T09:36:07.995Z,301.35
2019-05-10T09:37:13.124Z,302.04
2019-05-10T09:38:09.033Z,302.10
2019-05-10T09:39:12.618Z,301.63
2019-05-10T09:40:09.865Z,301.86
2019-05-10T09:41:07.928Z,302.36
2019-05-10T09:42:11.036Z,302.34
2019-05-10T09:43:09.866Z,302.20
2019-05-10T09:44:07.884Z,301.75
2019-05-10T09:45:09.839Z,301.63
2019-05-10T09:46:08.556Z,300.61
2019-05-10T09:47:07.895Z,302.16
2019-05-10T09:48:07.853Z,301.03
2019-05-10T09:49:15.746Z,301.22
2019-05-10T09:50:08.920Z,302.22
2019-05-10T09:51:08.561Z,302.16
2019-05-10T09:52:12.527Z,302.06
2019-05-10T09:53:10.254Z,302.28
2019-05-10T09:54:07.864Z,301.77
2019-05-10T09:55:10.232Z,302.39
2019-05-10T09:56:08.780Z,301.87
2019-05-10T09:57:08.268Z,303.83
2019-05-10T09:58:08.590Z,302.98
2019-05-10T09:59:08.527Z,301.92
2019-05-10T10:00:07.734Z,301.61
2019-05-10T10:01:14.801Z,301.99
2019-05-10T10:02:14.549Z,301.68
2019-05-10T10:03:08.753Z,302.71
2019-05-10T10:04:07.701Z,302.26
2019-05-10T10:05:07.663Z,302.75
2019-05-10T10:06:11.117Z,302.30
2019-05-10T10:07:07.672Z,303.85
2019-05-10T10:08:09.086Z,304.15
2019-05-10T10:09:10.845Z,305.35
2019-05-10T10:10:07.771Z,305.65
2019-05-10T10:11:15.094Z,305.15
2019-05-10T10:12:08.585Z,307.43
2019-05-10T10:13:13.190Z,306.34
2019-05-10T10:14:10.206Z,307.09
2019-05-10T10:15:09.983Z,306.21
2019-05-10T10:16:10.338Z,304.59
2019-05-10T10:17:08.661Z,306.49
2019-05-10T10:18:07.546Z,307.48
2019-05-10T10:19:07.540Z,306.05
2019-05-10T10:20:08.452Z,304.90
2019-05-10T10:21:10.050Z,306.88
2019-05-10T10:22:11.115Z,306.33
2019-05-10T10:23:08.535Z,306.18
2019-05-10T10:24:15.791Z,308.61
2019-05-10T10:25:08.461Z,304.79
2019-05-10T10:26:07.450Z,306.69
2019-05-10T10:27:07.568Z,305.35
2019-05-10T10:28:16.452Z,304.91
2019-05-10T10:29:08.441Z,306.02
2019-05-10T10:30:12.861Z,306.43
2019-05-10T10:31:08.606Z,305.27
2019-05-10T10:32:08.130Z,305.39
2019-05-10T10:33:11.483Z,305.40
2019-05-10T10:34:08.350Z,306.06
2019-05-10T10:35:08.077Z,305.93
2019-05-10T10:36:10.417Z,306.53
2019-05-10T10:37:07.938Z,307.07
2019-05-10T10:38:08.073Z,307.61
2019-05-10T10:39:07.535Z,306.38
2019-05-10T10:40:08.701Z,305.61
2019-05-10T10:41:25.606Z,305.82
2019-05-10T10:42:12.940Z,306.21
2019-05-10T10:43:08.282Z,306.32
2019-05-10T10:44:08.414Z,306.23
2019-05-10T10:45:07.443Z,307.70
2019-05-10T10:46:11.962Z,304.83
2019-05-10T10:47:08.410Z,302.83
2019-05-10T10:48:12.598Z,304.51
2019-05-10T10:49:10.449Z,304.53
2019-05-10T10:50:09.108Z,303.12
2019-05-10T10:51:08.235Z,304.86
2019-05-10T10:52:11.380Z,304.88
2019-05-10T10:54:22.200Z,302.34
2019-05-10T10:55:18.720Z,305.40
2019-05-10T10:56:17.791Z,305.99
2019-05-10T10:57:18.052Z,305.02
2019-05-10T10:58:18.927Z,304.92
2019-05-10T10:59:18.302Z,303.38
2019-05-10T11:00:23.244Z,304.61
2019-05-10T11:01:24.979Z,304.65
2019-05-10T11:02:32.691Z,303.03
2019-05-10T11:03:18.725Z,304.23
2019-05-10T11:04:29.140Z,304.57
2019-05-10T11:05:26.700Z,303.66
2019-05-10T11:06:17.619Z,304.50
2019-05-10T11:07:17.621Z,304.99
2019-05-10T11:08:17.602Z,304.05
2019-05-10T11:09:17.597Z,304.77
2019-05-10T11:10:19.282Z,300.83
2019-05-10T11:11:17.569Z,301.94
2019-05-10T11:12:20.849Z,302.07
2019-05-10T11:13:29.029Z,302.02
2019-05-10T11:14:20.545Z,300.60
2019-05-10T11:15:23.086Z,300.75
2019-05-10T11:16:20.663Z,301.98
2019-05-10T11:17:17.522Z,302.67
2019-05-10T11:18:17.507Z,303.39
2019-05-10T11:19:17.482Z,302.85
2019-05-10T11:20:17.478Z,302.80
2019-05-10T11:21:17.464Z,303.75
2019-05-10T11:22:17.484Z,304.21
2019-05-10T11:23:17.440Z,302.27
2019-05-10T11:24:18.731Z,303.13
2019-05-10T11:25:17.448Z,301.74
2019-05-10T11:26:17.439Z,302.66
2019-05-10T11:27:17.509Z,302.54
2019-05-10T11:28:17.413Z,302.80
2019-05-10T11:29:25.332Z,301.87
2019-05-10T11:30:18.426Z,301.59
2019-05-10T11:31:17.365Z,302.43
2019-05-10T11:32:17.372Z,301.59
2019-05-10T11:33:27.291Z,301.29
2019-05-10T11:34:18.379Z,301.77
2019-05-10T11:35:25.204Z,302.76
2019-05-10T11:36:18.339Z,303.53
2019-05-10T11:37:18.562Z,303.05
2019-05-10T11:38:18.309Z,302.89
2019-05-10T11:39:25.920Z,302.25
2019-05-10T11:40:28.032Z,302.98
2019-05-10T11:41:23.654Z,301.77
2019-05-10T11:42:18.256Z,302.13
2019-05-10T11:43:17.511Z,300.88
2019-05-10T11:44:18.241Z,301.65
2019-05-10T11:45:17.226Z,301.90
2019-05-10T11:46:17.331Z,303.43
2019-05-10T11:47:24.094Z,303.50
2019-05-10T11:48:18.184Z,303.14
2019-05-10T11:49:17.201Z,302.73
2019-05-10T11:51:18.154Z,301.96
2019-05-10T11:52:17.138Z,302.65
2019-05-10T11:53:17.606Z,302.41
2019-05-10T11:54:17.107Z,301.50
2019-05-10T11:55:17.112Z,302.00
2019-05-10T11:56:17.210Z,302.97
2019-05-10T11:57:17.100Z,302.21
2019-05-10T11:58:17.083Z,299.98
2019-05-10T11:59:03.714Z,302.81
2019-05-10T11:59:17.072Z,302.53
2019-05-10T12:00:28.069Z,301.62
2019-05-10T12:01:21.481Z,301.23
2019-05-10T12:02:35.392Z,304.48
2019-05-10T12:03:22.388Z,299.61
2019-05-10T12:04:23.888Z,303.07
2019-05-10T12:05:22.806Z,301.74
2019-05-10T12:06:18.023Z,303.13
2019-05-10T12:07:23.892Z,302.00
2019-05-10T12:08:17.970Z,301.34
2019-05-10T12:09:16.977Z,296.72
2019-05-10T12:10:20.999Z,300.61
2019-05-10T12:11:29.409Z,301.52
2019-05-10T12:12:29.716Z,301.60
2019-05-10T12:13:20.824Z,300.66
2019-05-10T12:14:17.910Z,302.88
2019-05-10T12:15:24.741Z,298.97
2019-05-10T12:16:18.019Z,301.43
2019-05-10T12:17:16.906Z,300.02
2019-05-10T12:18:21.909Z,300.86
2019-05-10T12:19:21.253Z,299.60
2019-05-10T12:20:17.177Z,300.74
2019-05-10T12:21:16.873Z,299.45
2019-05-10T12:22:16.907Z,300.02
2019-05-10T12:23:22.877Z,294.81
2019-05-10T12:25:38.020Z,299.35
2019-05-10T12:26:50.013Z,298.85
2019-05-10T12:27:25.960Z,299.23
2019-05-10T12:28:24.524Z,299.63
2019-05-10T12:29:17.776Z,299.04
2019-05-10T12:30:16.773Z,298.28
2019-05-10T12:31:17.260Z,298.89
2019-05-10T12:32:16.733Z,300.36
2019-05-10T12:33:23.779Z,297.63
2019-05-10T12:34:17.742Z,300.78
2019-05-10T12:35:16.734Z,297.99